Time;durP1;ratioP1;P1;durP2;ratioP2;P2;SDS_P1;SDS_P2;PMS_P1;PMS_P2;Temp;Humidity;BMP_temperature;BMP_pressure;BME280_temperature;BME280_humidity;BME280_pressure;Samples;Min_cycle;Max_cycle;Signal;HPM_P1;HPM_P2
2023/07/31 00:00:40;;;;;;;5.30;2.35;;;15.70;99.90;;;;;;5054538;28;20521;-81
2023/07/31 00:03:05;;;;;;;3.65;2.33;;;15.70;99.90;;;;;;5055662;28;20033;-81
2023/07/31 00:05:31;;;;;;;3.53;2.72;;;15.80;99.90;;;;;;5053673;28;20040;-81
2023/07/31 00:07:56;;;;;;;4.50;2.97;;;15.70;99.90;;;;;;5068951;28;20411;-81
2023/07/31 00:10:22;;;;;;;6.47;2.88;;;15.70;99.90;;;;;;5039313;28;20029;-82
2023/07/31 00:12:47;;;;;;;4.10;2.50;;;15.70;99.90;;;;;;5058631;28;20033;-81
2023/07/31 00:15:14;;;;;;;4.03;2.80;;;15.70;99.90;;;;;;5056622;28;20044;-81
2023/07/31 00:17:40;;;;;;;3.05;2.20;;;15.60;99.90;;;;;;5036503;28;20505;-81
2023/07/31 00:20:06;;;;;;;3.65;2.60;;;15.60;99.90;;;;;;5051926;28;20040;-81
2023/07/31 00:22:32;;;;;;;3.72;2.67;;;15.60;99.90;;;;;;5050360;28;20047;-82
2023/07/31 00:24:58;;;;;;;3.58;3.20;;;15.60;99.90;;;;;;5032470;28;20041;-81
2023/07/31 00:27:23;;;;;;;4.60;2.95;;;15.60;99.90;;;;;;5049801;28;20111;-81
2023/07/31 00:29:49;;;;;;;4.30;2.65;;;15.60;99.90;;;;;;5054055;28;20064;-81
2023/07/31 00:32:14;;;;;;;5.60;3.30;;;15.60;99.90;;;;;;5036850;28;20106;-81
2023/07/31 00:34:40;;;;;;;3.45;2.60;;;15.50;99.90;;;;;;5054613;28;20115;-81
2023/07/31 00:37:06;;;;;;;5.10;2.70;;;15.50;99.90;;;;;;5053429;28;20101;-81
2023/07/31 00:39:33;;;;;;;3.03;2.70;;;15.10;99.90;;;;;;5052845;28;20561;-81
2023/07/31 00:41:59;;;;;;;4.75;2.28;;;15.50;99.90;;;;;;5053649;28;20415;-81
2023/07/31 00:44:29;;;;;;;3.60;2.47;;;15.50;99.90;;;;;;5049777;28;20029;-81
2023/07/31 00:46:59;;;;;;;3.42;2.00;;;15.50;99.90;;;;;;5051503;28;20076;-82
2023/07/31 00:49:44;;;;;;;3.35;2.65;;;15.60;99.90;;;;;;5044815;28;20079;-81
2023/07/31 00:52:13;;;;;;;2.05;1.60;;;15.50;99.90;;;;;;5051456;28;20119;-81
2023/07/31 00:54:39;;;;;;;3.03;2.40;;;15.50;99.90;;;;;;5014906;28;20052;-81
2023/07/31 00:57:07;;;;;;;2.28;1.85;;;15.50;99.90;;;;;;5051283;28;20041;-81
2023/07/31 00:59:33;;;;;;;2.65;1.77;;;15.60;99.90;;;;;;5033073;28;20475;-81
2023/07/31 01:01:59;;;;;;;1.85;1.30;;;15.40;99.90;;;;;;5035860;28;20033;-81
2023/07/31 01:04:25;;;;;;;2.08;1.45;;;15.40;99.90;;;;;;5052821;28;20048;-82
2023/07/31 01:07:22;;;;;;;3.47;1.10;;;15.80;99.90;;;;;;5050641;28;20045;-82
2023/07/31 01:09:52;;;;;;;;;;;15.40;99.90;;;;;;5041541;28;20038;-81
2023/07/31 01:12:20;;;;;;;2.85;1.35;;;15.40;99.90;;;;;;5044038;28;19925;-81
2023/07/31 01:15:05;;;;;;;1.63;1.20;;;15.40;99.90;;;;;;5050210;28;20482;-82
2023/07/31 01:17:31;;;;;;;3.88;1.17;;;15.40;99.90;;;;;;5048848;28;20124;-82
2023/07/31 01:20:03;;;;;;;2.55;1.38;;;15.40;99.90;;;;;;5042391;28;20052;-82
2023/07/31 01:23:00;;;;;;;1.60;0.70;;;15.40;99.90;;;;;;5056493;28;20052;-81
2023/07/31 01:25:56;;;;;;;1.48;1.00;;;15.40;99.90;;;;;;5039716;28;20523;-81
2023/07/31 01:28:36;;;;;;;2.38;0.98;;;15.40;99.90;;;;;;5049792;28;20044;-81
2023/07/31 01:31:04;;;;;;;3.25;0.73;;;15.50;99.90;;;;;;5051158;28;20040;-81
2023/07/31 01:33:30;;;;;;;3.08;0.80;;;15.40;99.90;;;;;;5049851;28;20045;-81
2023/07/31 01:35:56;;;;;;;0.85;0.55;;;15.50;99.90;;;;;;5051857;28;20060;-81
2023/07/31 01:38:22;;;;;;;1.08;0.60;;;15.50;99.90;;;;;;5050470;28;20044;-81
2023/07/31 01:40:52;;;;;;;2.25;1.20;;;15.50;99.90;;;;;;5034228;28;20041;-81
2023/07/31 01:43:18;;;;;;;1.23;0.77;;;15.50;99.90;;;;;;5027101;28;20519;-82
2023/07/31 01:45:43;;;;;;;0.80;0.75;;;15.50;99.90;;;;;;5052279;28;20079;-81
2023/07/31 01:48:09;;;;;;;2.53;1.13;;;15.50;99.90;;;;;;5052597;28;20041;-81
2023/07/31 01:50:34;;;;;;;2.40;0.80;;;15.50;99.90;;;;;;5052800;28;20029;-81
2023/07/31 01:53:00;;;;;;;1.27;0.70;;;15.50;99.90;;;;;;5049058;28;20036;-82
2023/07/31 01:55:25;;;;;;;1.15;0.55;;;15.50;99.90;;;;;;5044610;28;20090;-81
2023/07/31 01:57:52;;;;;;;3.05;0.80;;;15.50;99.90;;;;;;5046631;28;20052;-82
2023/07/31 02:00:18;;;;;;;3.40;0.70;;;15.50;99.90;;;;;;5046668;28;20051;-81
2023/07/31 02:02:43;;;;;;;1.85;0.55;;;15.50;99.90;;;;;;5046407;28;20053;-81
2023/07/31 02:05:09;;;;;;;3.17;0.85;;;15.60;99.90;;;;;;5049117;28;20136;-81
2023/07/31 02:07:34;;;;;;;1.17;0.80;;;15.50;99.90;;;;;;5046347;28;20041;-81
2023/07/31 02:10:00;;;;;;;1.63;0.88;;;15.50;99.90;;;;;;5051195;28;20345;-81
2023/07/31 02:12:25;;;;;;;2.55;0.88;;;15.50;99.90;;;;;;5047384;28;20399;-81
2023/07/31 02:14:51;;;;;;;2.17;0.60;;;15.50;99.90;;;;;;5065783;28;20060;-81
2023/07/31 02:17:16;;;;;;;0.70;0.50;;;15.60;99.90;;;;;;5044952;28;20037;-82
2023/07/31 02:19:42;;;;;;;0.70;0.32;;;15.60;99.90;;;;;;5047826;28;21985;-81
2023/07/31 02:22:08;;;;;;;1.00;0.73;;;15.60;99.90;;;;;;5046772;28;20127;-81
2023/07/31 02:24:33;;;;;;;3.35;0.82;;;15.60;99.90;;;;;;5046823;28;20476;-81
2023/07/31 02:26:59;;;;;;;0.80;0.40;;;15.60;99.90;;;;;;5046906;28;20040;-81
2023/07/31 02:29:24;;;;;;;0.80;0.55;;;15.60;99.90;;;;;;5047657;28;20029;-81
2023/07/31 02:31:50;;;;;;;2.85;0.43;;;15.60;99.90;;;;;;5045482;28;20079;-81
2023/07/31 02:34:15;;;;;;;0.60;0.28;;;15.60;99.90;;;;;;5046280;28;20068;-81
2023/07/31 02:36:41;;;;;;;2.55;0.40;;;15.60;99.90;;;;;;5056281;28;20385;-81
2023/07/31 02:39:06;;;;;;;2.75;0.40;;;15.70;99.90;;;;;;5045261;28;20095;-81
2023/07/31 02:41:32;;;;;;;0.75;0.45;;;15.60;99.90;;;;;;5050330;28;20049;-81
2023/07/31 02:43:58;;;;;;;0.68;0.40;;;15.70;99.90;;;;;;5033631;28;20032;-81
2023/07/31 02:46:26;;;;;;;1.65;0.50;;;15.70;99.90;;;;;;5050229;28;20148;-81
2023/07/31 02:48:52;;;;;;;2.85;0.40;;;15.70;99.90;;;;;;5050599;28;21830;-81
2023/07/31 02:51:17;;;;;;;1.08;0.60;;;15.70;99.90;;;;;;5050690;28;20104;-80
2023/07/31 02:53:43;;;;;;;0.88;0.40;;;15.70;99.90;;;;;;5036363;28;20033;-81
2023/07/31 02:56:08;;;;;;;0.68;0.40;;;15.70;99.90;;;;;;5031594;28;20098;-81
2023/07/31 02:58:34;;;;;;;2.25;0.52;;;15.70;99.90;;;;;;5049844;28;20059;-81
2023/07/31 03:00:59;;;;;;;2.50;0.85;;;15.70;99.90;;;;;;5033215;28;20441;-81
2023/07/31 03:03:25;;;;;;;0.70;0.50;;;15.70;99.90;;;;;;5034033;28;20029;-81
2023/07/31 03:05:50;;;;;;;0.77;0.60;;;15.70;99.90;;;;;;5047342;28;20041;-81
2023/07/31 03:08:16;;;;;;;1.13;0.60;;;15.70;99.90;;;;;;5050562;28;20387;-81
2023/07/31 03:10:42;;;;;;;5.78;0.80;;;15.80;99.90;;;;;;5053339;28;20041;-81
2023/07/31 03:13:07;;;;;;;3.50;0.90;;;15.80;99.90;;;;;;5046080;28;20776;-81
2023/07/31 03:15:33;;;;;;;0.88;0.32;;;15.80;99.90;;;;;;5050501;28;20044;-82
2023/07/31 03:17:58;;;;;;;1.90;0.35;;;15.80;99.90;;;;;;5044544;28;20049;-82
2023/07/31 03:20:24;;;;;;;1.65;0.30;;;15.80;99.90;;;;;;5032676;28;20041;-82
2023/07/31 03:22:49;;;;;;;4.55;0.60;;;15.80;99.90;;;;;;5048773;28;20670;-81
2023/07/31 03:25:15;;;;;;;0.80;0.22;;;15.80;99.90;;;;;;5050323;28;20048;-81
2023/07/31 03:27:41;;;;;;;0.52;0.22;;;15.90;99.90;;;;;;5045558;28;20139;-81
2023/07/31 03:30:07;;;;;;;0.70;0.35;;;15.90;99.90;;;;;;5050227;28;20086;-81
2023/07/31 03:32:32;;;;;;;1.15;0.43;;;15.90;99.90;;;;;;5049424;28;20037;-82
2023/07/31 03:34:58;;;;;;;1.30;0.50;;;15.90;99.90;;;;;;5049818;28;20051;-82
2023/07/31 03:37:24;;;;;;;1.33;0.40;;;15.90;99.90;;;;;;5052418;28;20666;-81
2023/07/31 03:39:49;;;;;;;1.25;0.43;;;15.90;99.90;;;;;;5055258;28;20108;-81
2023/07/31 03:42:15;;;;;;;0.63;0.43;;;15.90;99.90;;;;;;5053796;28;20407;-81
2023/07/31 03:44:40;;;;;;;0.95;0.47;;;15.90;99.90;;;;;;5054508;28;20119;-81
2023/07/31 03:47:06;;;;;;;4.57;0.47;;;16.00;99.90;;;;;;5052330;28;20112;-81
2023/07/31 03:49:32;;;;;;;0.52;0.28;;;15.90;99.90;;;;;;5054388;28;20080;-81
2023/07/31 03:51:57;;;;;;;1.65;0.75;;;15.90;99.90;;;;;;5055133;28;20369;-81
2023/07/31 03:54:23;;;;;;;2.17;0.20;;;16.00;99.90;;;;;;5054933;28;20124;-81
2023/07/31 03:56:48;;;;;;;3.35;0.30;;;16.00;99.90;;;;;;5055824;28;20476;-81
2023/07/31 03:59:14;;;;;;;0.80;0.20;;;15.90;99.90;;;;;;5053781;28;20055;-81
2023/07/31 04:01:39;;;;;;;0.55;0.10;;;16.00;99.90;;;;;;5034782;28;20067;-81
2023/07/31 04:04:05;;;;;;;2.85;0.55;;;16.00;99.90;;;;;;5053630;28;20053;-81
2023/07/31 04:06:30;;;;;;;2.30;0.20;;;16.10;99.90;;;;;;5035473;28;20036;-82
2023/07/31 04:08:56;;;;;;;0.93;0.35;;;16.00;99.90;;;;;;5054264;28;20079;-82
2023/07/31 04:11:22;;;;;;;4.40;0.20;;;16.00;99.90;;;;;;5054499;28;20047;-82
2023/07/31 04:13:50;;;;;;;3.30;0.30;;;15.90;99.90;;;;;;5052571;28;20043;-83
2023/07/31 04:16:16;;;;;;;1.95;0.28;;;16.00;99.90;;;;;;5049766;28;20741;-83
2023/07/31 04:18:41;;;;;;;3.08;0.40;;;16.00;99.90;;;;;;5049439;28;20709;-82
2023/07/31 04:21:07;;;;;;;1.33;0.30;;;16.00;99.90;;;;;;5050047;28;20123;-82
2023/07/31 04:23:32;;;;;;;2.13;0.35;;;15.90;99.90;;;;;;5052815;28;20041;-82
2023/07/31 04:25:58;;;;;;;0.93;0.35;;;16.00;99.90;;;;;;5053006;28;20686;-82
2023/07/31 04:28:25;;;;;;;2.38;0.40;;;16.00;99.90;;;;;;5051758;28;20040;-82
2023/07/31 04:30:51;;;;;;;1.20;0.38;;;16.00;99.90;;;;;;5050828;28;20077;-82
2023/07/31 04:33:17;;;;;;;1.42;0.47;;;16.00;99.90;;;;;;5033932;28;20060;-82
2023/07/31 04:35:52;;;;;;;4.07;1.05;;;16.10;99.90;;;;;;5050588;28;20483;-82
2023/07/31 04:38:19;;;;;;;3.53;0.68;;;16.00;99.90;;;;;;5051993;28;20037;-82
2023/07/31 04:40:45;;;;;;;4.63;1.10;;;16.10;99.90;;;;;;5035096;28;20056;-82
2023/07/31 04:43:11;;;;;;;7.28;1.67;;;16.10;99.90;;;;;;5051044;28;20036;-82
2023/07/31 04:45:36;;;;;;;7.20;1.90;;;16.00;99.90;;;;;;5052785;28;20120;-82
2023/07/31 04:48:02;;;;;;;7.55;1.77;;;16.10;99.90;;;;;;5033255;28;20033;-82
2023/07/31 04:50:30;;;;;;;6.07;2.40;;;16.20;99.90;;;;;;5051672;28;20029;-83
2023/07/31 04:52:55;;;;;;;8.57;3.75;;;16.20;99.90;;;;;;5048460;28;20045;-82
2023/07/31 04:55:21;;;;;;;13.75;4.30;;;16.20;99.90;;;;;;5049140;28;20037;-82
2023/07/31 04:57:47;;;;;;;11.52;4.35;;;16.30;99.90;;;;;;5062800;28;20041;-82
2023/07/31 05:00:19;;;;;;;10.55;4.78;;;16.30;99.90;;;;;;5051094;28;20044;-82
2023/07/31 05:02:45;;;;;;;15.00;5.88;;;16.30;99.90;;;;;;5033207;28;20495;-82
2023/07/31 05:05:10;;;;;;;14.32;6.28;;;16.40;99.90;;;;;;5050186;28;20324;-82
2023/07/31 05:07:36;;;;;;;20.50;6.93;;;16.40;99.90;;;;;;5049744;28;20463;-82
2023/07/31 05:10:02;;;;;;;20.50;7.97;;;16.40;99.90;;;;;;5050202;28;20043;-81
2023/07/31 05:12:28;;;;;;;24.15;6.40;;;16.40;99.90;;;;;;5031654;28;20120;-83
2023/07/31 05:14:53;;;;;;;20.52;6.32;;;16.40;99.90;;;;;;5046831;28;20136;-81
2023/07/31 05:17:19;;;;;;;21.60;6.97;;;16.50;99.90;;;;;;5052217;28;20041;-81
2023/07/31 05:19:44;;;;;;;17.27;6.55;;;16.40;99.90;;;;;;5053332;28;20032;-80
2023/07/31 05:22:10;;;;;;;20.73;7.32;;;16.50;99.90;;;;;;5051897;28;20094;-81
2023/07/31 05:24:35;;;;;;;21.65;7.10;;;16.50;99.90;;;;;;5053213;28;20353;-81
2023/07/31 05:27:01;;;;;;;22.05;6.97;;;16.50;99.90;;;;;;5050465;28;20052;-81
2023/07/31 05:29:26;;;;;;;22.55;7.72;;;16.50;99.90;;;;;;5050691;28;20404;-80
2023/07/31 05:31:52;;;;;;;27.17;7.78;;;16.50;99.90;;;;;;5051300;28;20606;-81
2023/07/31 05:34:17;;;;;;;21.13;6.90;;;16.60;99.90;;;;;;5051459;28;20053;-80
2023/07/31 05:36:43;;;;;;;25.08;8.07;;;16.60;99.90;;;;;;5046553;28;20047;-81
2023/07/31 05:39:09;;;;;;;23.13;8.10;;;16.60;99.90;;;;;;5052128;28;20041;-82
2023/07/31 05:41:35;;;;;;;24.60;8.38;;;16.60;99.90;;;;;;5053235;28;20037;-82
2023/07/31 05:44:01;;;;;;;21.75;8.25;;;16.60;99.90;;;;;;5050630;28;20049;-82
2023/07/31 05:46:27;;;;;;;24.90;7.22;;;16.60;99.90;;;;;;5046628;28;20116;-82
2023/07/31 05:48:53;;;;;;;21.50;7.80;;;16.60;99.90;;;;;;5018493;28;20487;-81
2023/07/31 05:51:20;;;;;;;22.52;7.97;;;16.60;99.90;;;;;;5052997;28;20052;-82
2023/07/31 05:53:46;;;;;;;22.80;7.95;;;17.20;99.90;;;;;;5049598;28;20049;-82
2023/07/31 05:56:12;;;;;;;23.63;7.43;;;16.70;99.90;;;;;;5050259;28;20037;-80
2023/07/31 05:58:38;;;;;;;26.20;6.72;;;16.60;99.90;;;;;;5055671;28;20215;-80
2023/07/31 06:01:03;;;;;;;24.48;7.55;;;16.60;99.90;;;;;;5059082;28;20072;-82
2023/07/31 06:03:29;;;;;;;28.63;8.50;;;16.60;99.90;;;;;;5052231;28;20048;-82
2023/07/31 06:05:54;;;;;;;25.45;8.60;;;16.60;99.90;;;;;;5037574;28;20045;-82
2023/07/31 06:08:26;;;;;;;27.77;8.63;;;16.70;99.90;;;;;;5051897;28;20495;-82
2023/07/31 06:10:52;;;;;;;25.40;7.80;;;16.80;99.90;;;;;;5049783;28;20398;-84
2023/07/31 06:13:17;;;;;;;38.90;9.80;;;16.80;99.90;;;;;;5047529;28;20029;-85
2023/07/31 06:15:44;;;;;;;27.08;8.13;;;16.80;99.90;;;;;;5033726;28;20479;-82
2023/07/31 06:18:14;;;;;;;19.88;6.57;;;16.80;99.90;;;;;;5050191;28;20076;-85
2023/07/31 06:20:53;;;;;;;19.13;5.38;;;16.80;99.90;;;;;;5056294;28;20851;-82
2023/07/31 06:23:19;;;;;;;16.63;5.75;;;16.80;99.90;;;;;;5058618;28;20098;-81
2023/07/31 06:25:45;;;;;;;16.77;6.25;;;16.80;99.90;;;;;;5052202;28;20110;-81
2023/07/31 06:28:10;;;;;;;20.67;7.22;;;16.80;99.90;;;;;;5054819;28;20045;-81
2023/07/31 06:30:36;;;;;;;18.13;6.45;;;16.80;99.90;;;;;;5057539;28;20487;-80
2023/07/31 06:33:01;;;;;;;18.27;5.78;;;16.80;99.90;;;;;;5055742;28;20052;-83
2023/07/31 06:35:27;;;;;;;16.75;6.40;;;16.80;99.90;;;;;;5055297;28;20410;-82
2023/07/31 06:37:53;;;;;;;20.77;7.65;;;16.80;99.90;;;;;;5040334;28;20041;-80
2023/07/31 06:40:19;;;;;;;20.48;7.43;;;16.80;99.90;;;;;;5056746;28;20106;-80
2023/07/31 06:42:44;;;;;;;23.23;7.78;;;16.80;99.90;;;;;;5064019;28;20155;-80
2023/07/31 06:45:10;;;;;;;21.20;7.55;;;16.80;99.90;;;;;;5055168;28;20044;-81
2023/07/31 06:47:36;;;;;;;22.80;7.70;;;16.80;99.90;;;;;;5052602;28;20894;-81
2023/07/31 06:50:01;;;;;;;25.50;8.15;;;16.80;99.90;;;;;;5051530;28;20122;-83
2023/07/31 06:52:27;;;;;;;31.00;10.00;;;16.80;99.90;;;;;;5050654;28;20075;-83
2023/07/31 06:55:18;;;;;;;28.05;9.05;;;16.80;99.90;;;;;;5048699;28;20098;-83
2023/07/31 06:57:44;;;;;;;21.98;8.40;;;16.80;99.90;;;;;;5054378;28;20037;-81
2023/07/31 07:00:11;;;;;;;23.58;8.43;;;16.70;99.90;;;;;;5031513;28;20051;-81
2023/07/31 07:02:36;;;;;;;19.70;8.57;;;16.70;99.90;;;;;;5047007;28;20519;-81
2023/07/31 07:05:05;;;;;;;21.95;8.48;;;16.70;99.90;;;;;;5051550;28;20048;-82
2023/07/31 07:07:30;;;;;;;15.82;7.10;;;16.70;99.90;;;;;;5050519;28;20659;-82
2023/07/31 07:09:56;;;;;;;21.45;6.85;;;16.70;99.90;;;;;;5054859;28;20040;-81
2023/07/31 07:16:17;;;;;;;11.80;4.72;;;16.80;99.90;;;;;;4987524;28;20091;-82
2023/07/31 07:18:47;;;;;;;7.90;3.50;;;16.70;99.90;;;;;;4994437;28;20041;-83
2023/07/31 07:21:45;;;;;;;8.73;4.32;;;16.80;99.90;;;;;;4980739;28;20511;-82
2023/07/31 07:24:54;;;;;;;8.27;4.00;;;16.70;99.90;;;;;;4998787;28;20042;-81
2023/07/31 07:27:57;;;;;;;7.85;3.60;;;16.90;99.90;;;;;;4989161;28;20065;-82
2023/07/31 07:30:41;;;;;;;7.82;2.95;;;16.70;99.90;;;;;;4977022;28;20084;-82
2023/07/31 07:37:40;;;;;;;7.05;2.92;;;16.80;99.90;;;;;;4969956;28;20125;-81
2023/07/31 07:40:41;;;;;;;9.43;3.38;;;16.80;99.90;;;;;;4870515;29;20052;-83
2023/07/31 07:46:57;;;;;;;6.82;2.67;;;16.80;99.90;;;;;;4986390;28;20054;-82
2023/07/31 07:49:22;;;;;;;6.05;2.13;;;16.80;99.90;;;;;;5037333;28;20511;-82
2023/07/31 07:51:49;;;;;;;5.18;2.40;;;16.80;99.90;;;;;;5054292;28;20125;-82
2023/07/31 07:54:16;;;;;;;3.92;2.40;;;16.80;99.90;;;;;;5055321;28;20738;-82
2023/07/31 07:56:57;;;;;;;4.03;2.85;;;16.80;99.90;;;;;;5042436;28;20051;-82
2023/07/31 07:59:23;;;;;;;3.17;1.92;;;16.90;99.90;;;;;;5034390;28;20041;-82
2023/07/31 08:01:48;;;;;;;2.90;1.50;;;16.90;99.90;;;;;;5057180;28;20036;-82
2023/07/31 08:04:14;;;;;;;5.82;2.35;;;17.00;99.90;;;;;;5059024;28;20123;-82
2023/07/31 08:06:39;;;;;;;4.43;2.00;;;16.90;99.90;;;;;;5055024;28;20037;-82
2023/07/31 08:09:06;;;;;;;2.75;1.50;;;17.00;99.90;;;;;;5037851;28;20045;-83
2023/07/31 08:11:32;;;;;;;2.42;1.33;;;17.00;99.90;;;;;;5060457;28;20128;-82
2023/07/31 08:13:58;;;;;;;3.72;1.63;;;17.00;99.90;;;;;;5059187;28;20040;-82
2023/07/31 08:16:23;;;;;;;2.25;1.13;;;17.10;99.90;;;;;;5058656;28;20060;-82
2023/07/31 08:18:49;;;;;;;3.08;1.40;;;17.10;99.90;;;;;;5057352;28;20032;-82
2023/07/31 08:21:18;;;;;;;3.15;1.30;;;17.10;99.90;;;;;;5061392;28;20119;-83
2023/07/31 08:23:43;;;;;;;2.72;1.38;;;17.10;99.90;;;;;;5043142;28;20087;-83
2023/07/31 08:30:52;;;;;;;1.98;0.88;;;17.20;99.90;;;;;;5011418;28;20049;-83
2023/07/31 08:34:04;;;;;;;3.03;1.30;;;17.20;99.90;;;;;;4927052;28;20043;-83
2023/07/31 08:37:11;;;;;;;1.52;1.00;;;17.20;99.90;;;;;;4957887;28;20513;-82
2023/07/31 08:56:08;;;;;;;;;;;;;;;;;;;;;
2023/07/31 09:03:11;;;;;;;2.45;0.85;;;17.60;99.90;;;;;;4950568;28;20089;-83
2023/07/31 09:10:20;;;;;;;2.33;0.80;;;17.60;99.90;;;;;;4910572;29;20059;-83
2023/07/31 09:13:25;;;;;;;1.75;0.57;;;17.60;99.90;;;;;;4891936;29;20075;-84
2023/07/31 09:16:46;;;;;;;0.98;0.55;;;18.30;99.90;;;;;;4897133;29;20467;-83
2023/07/31 09:27:52;;;;;;;1.65;0.40;;;17.70;99.90;;;;;;4913420;29;20123;-82
2023/07/31 09:39:06;;;;;;;0.65;0.40;;;17.70;99.90;;;;;;4904713;29;20168;-83
2023/07/31 09:58:01;;;;;;;0.65;0.30;;;18.30;99.90;;;;;;4896596;29;20112;-84
2023/07/31 10:08:41;;;;;;;2.22;0.30;;;18.40;99.90;;;;;;4903699;29;20031;-85
2023/07/31 10:11:09;;;;;;;1.38;0.75;;;18.50;99.90;;;;;;4869367;29;20149;-82
2023/07/31 10:13:34;;;;;;;0.40;0.30;;;18.50;99.90;;;;;;4952901;28;20085;-82
2023/07/31 10:16:01;;;;;;;0.60;0.30;;;18.50;99.90;;;;;;5056699;28;20139;-82
2023/07/31 10:18:27;;;;;;;0.50;0.30;;;18.50;99.90;;;;;;5036513;28;20044;-82
2023/07/31 10:20:54;;;;;;;0.40;0.40;;;18.50;99.90;;;;;;5054318;28;20116;-82
2023/07/31 10:23:28;;;;;;;0.60;0.30;;;18.50;99.90;;;;;;5057190;28;20112;-84
2023/07/31 10:26:51;;;;;;;0.82;0.40;;;18.50;99.90;;;;;;5061737;28;20171;-83
2023/07/31 10:29:48;;;;;;;0.82;0.45;;;18.60;99.90;;;;;;5055929;28;20047;-82
2023/07/31 10:48:04;;;;;;;0.30;0.30;;;18.90;99.90;;;;;;5061896;28;20048;-83
2023/07/31 10:51:19;;;;;;;0.25;0.20;;;18.90;99.90;;;;;;4988180;28;20134;-84
2023/07/31 10:53:46;;;;;;;0.50;0.20;;;18.80;99.90;;;;;;4973873;28;20072;-83
2023/07/31 11:03:52;;;;;;;0.10;0.10;;;19.00;99.90;;;;;;4986920;28;20053;-83
2023/07/31 11:24:52;;;;;;;1.40;0.30;;;19.60;99.90;;;;;;4874858;29;20093;-83
2023/07/31 11:39:19;;;;;;;1.50;0.40;;;19.70;99.90;;;;;;4987401;28;20857;-84
2023/07/31 11:46:58;;;;;;;3.78;0.85;;;19.60;99.90;;;;;;4941518;28;20185;-84
2023/07/31 12:05:22;;;;;;;2.22;0.50;;;20.10;99.90;;;;;;4906116;29;20058;-84
2023/07/31 12:22:29;;;;;;;3.08;0.60;;;19.40;99.90;;;;;;5052665;28;20133;-84
2023/07/31 15:04:40;;;;;;;6.68;2.17;;;20.10;99.90;;;;;;2874319;26;20486;-84
2023/07/31 15:07:14;;;;;;;5.47;1.60;;;20.10;99.90;;;;;;4918800;29;20036;-83
2023/07/31 15:09:45;;;;;;;4.97;1.45;;;20.00;99.90;;;;;;4896682;29;20047;-83
2023/07/31 15:12:44;;;;;;;5.65;1.98;;;19.90;99.90;;;;;;4913017;29;20044;-83
2023/07/31 15:19:22;;;;;;;9.27;2.13;;;19.90;99.90;;;;;;4931186;29;20147;-83
2023/07/31 15:22:20;;;;;;;4.68;2.03;;;19.90;99.90;;;;;;4899828;29;20055;-84
2023/07/31 15:24:50;;;;;;;7.65;1.75;;;19.90;99.90;;;;;;4900515;29;20040;-83
2023/07/31 15:27:17;;;;;;;3.53;0.85;;;19.90;99.90;;;;;;4914089;29;20131;-83
2023/07/31 15:29:47;;;;;;;4.47;1.48;;;19.70;99.90;;;;;;4905102;29;20909;-83
2023/07/31 15:33:39;;;;;;;5.47;2.00;;;19.80;99.90;;;;;;4931311;29;20042;-84
2023/07/31 15:36:07;;;;;;;5.68;1.65;;;19.80;99.90;;;;;;4927143;29;20122;-81
2023/07/31 15:38:33;;;;;;;5.45;1.60;;;19.80;99.90;;;;;;4926059;29;20107;-83
2023/07/31 15:41:06;;;;;;;7.15;1.63;;;19.80;99.90;;;;;;4929287;29;20115;-84
2023/07/31 15:43:37;;;;;;;3.47;1.52;;;19.80;99.90;;;;;;4914177;29;20086;-83
2023/07/31 15:46:02;;;;;;;4.68;1.23;;;19.80;99.90;;;;;;4905682;29;20063;-82
2023/07/31 15:48:28;;;;;;;5.90;1.95;;;19.70;99.90;;;;;;4934174;29;20048;-82
2023/07/31 15:50:54;;;;;;;5.10;1.73;;;19.90;99.90;;;;;;4903446;29;20039;-81
2023/07/31 15:53:39;;;;;;;2.63;1.33;;;19.80;99.90;;;;;;4913287;29;20048;-82
2023/07/31 15:56:05;;;;;;;;;;;19.80;99.90;;;;;;4927017;29;20066;-83
2023/07/31 15:58:31;;;;;;;;;;;19.70;99.90;;;;;;4925855;29;19930;-83
2023/07/31 16:00:57;;;;;;;;;;;19.60;99.90;;;;;;4894289;29;19923;-82
2023/07/31 16:03:23;;;;;;;8.43;1.58;;;19.60;99.90;;;;;;4907396;29;19947;-82
2023/07/31 16:05:49;;;;;;;7.55;1.80;;;19.60;99.90;;;;;;4922306;29;20099;-82
2023/07/31 16:08:14;;;;;;;5.28;1.48;;;19.60;99.90;;;;;;4931352;29;20035;-81
2023/07/31 16:10:40;;;;;;;4.10;1.55;;;19.50;99.90;;;;;;4899965;29;20478;-82
2023/07/31 16:17:10;;;;;;;4.45;1.45;;;19.50;99.90;;;;;;4816553;29;20076;-82
2023/07/31 16:19:37;;;;;;;4.13;1.30;;;19.40;99.90;;;;;;4833236;29;20059;-81
2023/07/31 16:22:03;;;;;;;3.83;1.50;;;19.50;99.90;;;;;;4925262;29;20127;-81
2023/07/31 16:28:10;;;;;;;3.65;1.75;;;19.50;99.90;;;;;;4927648;29;20534;-83
2023/07/31 16:30:35;;;;;;;3.08;1.70;;;19.50;99.90;;;;;;4899158;29;20040;-82
2023/07/31 16:33:01;;;;;;;2.40;1.17;;;19.40;99.90;;;;;;4928177;29;20523;-83
2023/07/31 16:35:27;;;;;;;4.65;1.23;;;19.40;99.90;;;;;;4932187;29;20043;-83
2023/07/31 16:37:52;;;;;;;5.78;1.45;;;19.30;99.90;;;;;;4900119;29;20043;-82
2023/07/31 16:40:19;;;;;;;3.58;1.80;;;19.20;99.90;;;;;;4910754;29;20062;-82
2023/07/31 16:42:44;;;;;;;3.63;1.58;;;19.20;99.90;;;;;;4908566;29;20443;-82
2023/07/31 16:45:10;;;;;;;2.60;1.42;;;19.20;99.90;;;;;;4906842;29;20036;-83
2023/07/31 16:47:36;;;;;;;4.10;1.83;;;19.50;99.90;;;;;;4913153;29;20043;-83
2023/07/31 16:50:02;;;;;;;3.05;1.67;;;19.20;99.90;;;;;;4881338;29;20032;-83
2023/07/31 16:52:28;;;;;;;2.50;1.63;;;19.00;99.90;;;;;;4893022;29;20040;-82
2023/07/31 16:55:39;;;;;;;;;;;19.00;99.90;;;;;;4928960;29;20087;-84
2023/07/31 16:58:05;;;;;;;4.68;1.52;;;19.00;99.90;;;;;;4907102;29;19919;-83
2023/07/31 17:00:32;;;;;;;5.57;1.80;;;19.00;99.90;;;;;;4894283;29;20047;-82
2023/07/31 17:02:57;;;;;;;2.72;1.50;;;18.90;99.90;;;;;;4908515;29;20146;-82
2023/07/31 17:05:24;;;;;;;2.08;1.20;;;18.90;99.90;;;;;;4928018;29;20109;-82
2023/07/31 17:07:49;;;;;;;2.42;1.35;;;18.90;99.90;;;;;;4926749;29;20036;-83
2023/07/31 17:10:15;;;;;;;4.43;1.48;;;18.90;99.90;;;;;;4924801;29;20036;-83
2023/07/31 17:12:41;;;;;;;2.67;1.73;;;18.90;99.90;;;;;;4913894;29;20036;-82
2023/07/31 17:15:07;;;;;;;4.40;1.58;;;18.90;99.90;;;;;;4925670;29;20092;-82
2023/07/31 17:17:33;;;;;;;4.18;2.65;;;18.80;99.90;;;;;;4925687;29;20050;-82
2023/07/31 17:19:58;;;;;;;4.50;2.03;;;18.80;99.90;;;;;;4914996;29;20048;-82
2023/07/31 17:22:24;;;;;;;2.45;1.20;;;18.80;99.90;;;;;;4931541;29;20074;-83
2023/07/31 17:24:53;;;;;;;3.67;2.17;;;18.90;99.90;;;;;;4932773;29;20050;-85
2023/07/31 17:27:19;;;;;;;5.13;1.92;;;18.80;99.90;;;;;;4910077;29;20111;-81
2023/07/31 17:29:44;;;;;;;9.98;1.90;;;18.70;99.90;;;;;;4913438;29;20152;-82
2023/07/31 17:32:10;;;;;;;3.20;0.93;;;18.80;99.90;;;;;;4931934;29;20036;-82
2023/07/31 17:34:36;;;;;;;3.78;1.20;;;18.70;99.90;;;;;;4927181;29;20086;-81
2023/07/31 17:37:02;;;;;;;2.58;1.20;;;18.70;99.90;;;;;;4925520;29;20040;-82
2023/07/31 17:39:28;;;;;;;4.97;1.92;;;18.70;99.90;;;;;;4931458;29;20039;-82
2023/07/31 17:41:54;;;;;;;3.60;1.70;;;18.70;99.90;;;;;;4913728;29;20076;-82
2023/07/31 17:44:20;;;;;;;5.38;1.67;;;18.70;99.90;;;;;;4931984;29;20042;-82
2023/07/31 17:46:47;;;;;;;4.10;1.38;;;18.70;99.90;;;;;;4914899;29;20051;-82
2023/07/31 17:49:12;;;;;;;3.28;1.55;;;18.70;99.90;;;;;;4924750;29;20118;-82
2023/07/31 17:51:40;;;;;;;2.53;1.30;;;18.70;99.90;;;;;;4926000;29;20094;-82
2023/07/31 17:54:05;;;;;;;2.25;1.58;;;18.70;99.90;;;;;;4946721;28;20048;-82
2023/07/31 17:56:31;;;;;;;9.15;1.60;;;18.70;99.90;;;;;;4923175;29;20410;-82
2023/07/31 17:58:57;;;;;;;6.63;2.05;;;18.70;99.90;;;;;;4927907;29;20078;-82
2023/07/31 18:01:22;;;;;;;6.45;1.75;;;18.70;99.90;;;;;;4935547;29;20793;-82
2023/07/31 18:03:48;;;;;;;4.25;1.33;;;18.70;99.90;;;;;;4930635;29;20048;-82
2023/07/31 18:06:13;;;;;;;3.15;1.40;;;18.60;99.90;;;;;;4930847;29;20040;-82
2023/07/31 18:08:39;;;;;;;5.28;1.42;;;18.60;99.90;;;;;;4932412;28;20043;-82
2023/07/31 18:11:05;;;;;;;7.38;2.15;;;18.60;99.90;;;;;;4929288;29;20190;-82
2023/07/31 18:13:30;;;;;;;3.78;2.03;;;18.60;99.90;;;;;;4911345;29;20123;-82
2023/07/31 18:15:56;;;;;;;7.85;1.70;;;18.60;99.90;;;;;;4911682;29;20599;-81
2023/07/31 18:18:21;;;;;;;6.10;1.98;;;18.60;99.90;;;;;;4918002;29;20415;-81
2023/07/31 18:20:47;;;;;;;5.88;2.28;;;18.60;99.90;;;;;;4924988;29;20151;-81
2023/07/31 18:23:12;;;;;;;6.38;1.80;;;18.60;99.90;;;;;;4909092;29;20073;-81
2023/07/31 18:25:47;;;;;;;5.25;2.38;;;18.50;99.90;;;;;;4926872;29;20035;-79
2023/07/31 18:28:13;;;;;;;3.88;2.03;;;18.50;99.90;;;;;;4930271;29;20087;-82
2023/07/31 18:30:46;;;;;;;4.32;1.73;;;18.50;99.90;;;;;;4913241;29;20047;-82
2023/07/31 18:33:11;;;;;;;6.07;2.00;;;18.50;99.90;;;;;;4913489;29;20032;-82
2023/07/31 18:35:43;;;;;;;6.82;2.08;;;18.50;99.90;;;;;;4912727;29;20055;-83
2023/07/31 18:38:10;;;;;;;5.05;2.63;;;18.50;99.90;;;;;;4926543;29;20459;-83
2023/07/31 18:40:49;;;;;;;6.57;2.05;;;18.50;99.90;;;;;;4915060;29;20490;-84
2023/07/31 18:43:16;;;;;;;10.52;2.83;;;18.40;99.90;;;;;;4931507;29;20514;-83